^^
Meteo Knjazevac Station Historical Data
Daily Summary for July 15, 2021 Units:  Metric    English   Both
Daily Weekly Monthly Yearly Custom
  High: Low: Average:
Temperature: 10.6 °C 2.6 °C 6.6 °C
Dew Point: 7.6 °C 2 °C 5.3 °C
Humidity: 99% 80% 92%
Wind Speed: 16.1km/h 0km/h 6.1km/h
Wind Gust: 29km/h - -
Wind- - SE
Pressure: 1029 hPa 1025.3 hPa -
Precipitation: 0 mm    
Historical Graphs
 
 
Tabular Data for July 15, 2021
Time Temperature Dew Point Pressure Wind Wind Speed Wind Gust Humidity Rainfall Rate (Hourly) solar Conditions
00:00 5.8 °C 5.1 °C 1025.3 hPa North 1.6 km/h 6.4 km/h 95% 0 mm 0 W/m2
00:10 5.8 °C 5.1 °C 1025.3 hPa North 1.6 km/h 6.4 km/h 95% 0 mm 0 W/m2
00:20 5.8 °C 5.1 °C 1025.3 hPa North 1.6 km/h 6.4 km/h 95% 0 mm 0 W/m2
00:30 5.7 °C 4.9 °C 1025.3 hPa North 3.2 km/h 8 km/h 95% 0 mm 0 W/m2
00:40 5.7 °C 5.1 °C 1025.3 hPa North 3.2 km/h 8 km/h 96% 0 mm 0 W/m2
00:50 5.7 °C 5.1 °C 1025.6 hPa North 3.2 km/h 8 km/h 96% 0 mm 0 W/m2
01:00 5.7 °C 5.1 °C 1025.6 hPa North 3.2 km/h 11.3 km/h 96% 0 mm 0 W/m2
01:10 5.7 °C 5.1 °C 1025.6 hPa North 3.2 km/h 9.7 km/h 96% 0 mm 0 W/m2
01:20 5.6 °C 5 °C 1025.6 hPa North 1.6 km/h 11.3 km/h 96% 0 mm 0 W/m2
01:30 5.6 °C 5 °C 1025.6 hPa Calm   6.4 km/h 96% 0 mm 0 W/m2
01:40 5.6 °C 5 °C 1025.6 hPa North 4.8 km/h 9.7 km/h 96% 0 mm 0 W/m2
01:50 5.5 °C 4.9 °C 1025.6 hPa North 3.2 km/h 9.7 km/h 96% 0 mm 0 W/m2
02:00 5.5 °C 4.9 °C 1025.6 hPa NNE 3.2 km/h 11.3 km/h 96% 0 mm 0 W/m2
02:10 5.5 °C 4.9 °C 1026 hPa North 8 km/h 12.9 km/h 96% 0 mm 0 W/m2
02:20 5.5 °C 5.2 °C 1025.6 hPa NNE 3.2 km/h 12.9 km/h 98% 0 mm 0 W/m2
02:30 5.5 °C 5.2 °C 1025.6 hPa North 4.8 km/h 9.7 km/h 98% 0 mm 0 W/m2
02:40 5.5 °C 5.2 °C 1025.6 hPa North 3.2 km/h 9.7 km/h 98% 0 mm 0 W/m2
02:50 5.5 °C 5.2 °C 1025.6 hPa North 3.2 km/h 4.8 km/h 98% 0 mm 0 W/m2
03:00 5.5 °C 5.2 °C 1025.6 hPa North 3.2 km/h 8 km/h 98% 0 mm 0 W/m2
03:10 5.5 °C 5.2 °C 1025.6 hPa North 1.6 km/h 6.4 km/h 98% 0 mm 0 W/m2
03:20 5.5 °C 5.2 °C 1025.6 hPa NNE 4.8 km/h 9.7 km/h 98% 0 mm 0 W/m2
03:30 5.5 °C 5.2 °C 1025.6 hPa North 4.8 km/h 9.7 km/h 98% 0 mm 0 W/m2
03:40 5.5 °C 5.2 °C 1025.6 hPa North 4.8 km/h 8 km/h 98% 0 mm 0 W/m2
03:50 5.5 °C 5.2 °C 1025.6 hPa NNE 3.2 km/h 9.7 km/h 98% 0 mm 0 W/m2
04:00 5.5 °C 5.2 °C 1025.3 hPa NNE 3.2 km/h 8 km/h 98% 0 mm 0 W/m2
04:10 5.5 °C 5.2 °C 1025.3 hPa NNE 1.6 km/h 6.4 km/h 98% 0 mm 0 W/m2
04:20 5.5 °C 5.2 °C 1025.3 hPa NNE 3.2 km/h 8 km/h 98% 0 mm 0 W/m2
04:30 5.4 °C 5.2 °C 1025.6 hPa North 1.6 km/h 8 km/h 98% 0 mm 0 W/m2
04:40 5.4 °C 5.1 °C 1025.6 hPa NNE 3.2 km/h 8 km/h 98% 0 mm 0 W/m2
04:50 5.4 °C 5.1 °C 1025.6 hPa NNE 3.2 km/h 6.4 km/h 98% 0 mm 0 W/m2
05:00 5.4 °C 5.1 °C 1025.6 hPa NNE 3.2 km/h 6.4 km/h 98% 0 mm 0 W/m2
05:10 5.4 °C 5.1 °C 1025.6 hPa North 1.6 km/h 6.4 km/h 98% 0 mm 0 W/m2
05:20 5.5 °C 5.2 °C 1025.6 hPa NNE 3.2 km/h 9.7 km/h 98% 0 mm 0 W/m2
05:30 5.5 °C 5.2 °C 1025.6 hPa North 3.2 km/h 8 km/h 98% 0 mm 0 W/m2
05:40 5.5 °C 5.2 °C 1025.6 hPa North 1.6 km/h 6.4 km/h 98% 0 mm 0 W/m2
05:50 5.5 °C 5.2 °C 1025.6 hPa North 1.6 km/h 9.7 km/h 98% 0 mm 0 W/m2
06:00 5.5 °C 5.2 °C 1026 hPa North 1.6 km/h 9.7 km/h 98% 0 mm 0 W/m2
06:10 5.5 °C 5.2 °C 1025.6 hPa North 3.2 km/h 11.3 km/h 98% 0 mm 0 W/m2
06:20 5.5 °C 5.2 °C 1026 hPa North 1.6 km/h 8 km/h 98% 0 mm 0 W/m2
06:30 5.5 °C 5.2 °C 1026 hPa NNE 1.6 km/h 8 km/h 98% 0 mm 1 W/m2
06:40 5.5 °C 5.2 °C 1026 hPa NNE 1.6 km/h 9.7 km/h 98% 0 mm 2 W/m2
06:50 5.5 °C 5.3 °C 1026 hPa North 4.8 km/h 9.7 km/h 99% 0 mm 4 W/m2
07:00 5.5 °C 5.3 °C 1026.3 hPa North 3.2 km/h 11.3 km/h 99% 0 mm 6 W/m2
07:10 5.5 °C 5.3 °C 1026.3 hPa North 4.8 km/h 9.7 km/h 99% 0 mm 10 W/m2
07:20 5.5 °C 5.3 °C 1026.3 hPa North 3.2 km/h 11.3 km/h 99% 0 mm 17 W/m2
07:30 5.6 °C 5.4 °C 1026.3 hPa Calm   8 km/h 99% 0 mm 19 W/m2
07:40 5.7 °C 5.6 °C 1026.3 hPa North 1.6 km/h 11.3 km/h 99% 0 mm 27 W/m2
07:50 5.7 °C 5.6 °C 1026.6 hPa NNE 4.8 km/h 12.9 km/h 99% 0 mm 25 W/m2
08:00 5.8 °C 5.7 °C 1026.6 hPa North 1.6 km/h 11.3 km/h 99% 0 mm 43 W/m2
08:10 5.9 °C 5.7 °C 1026.6 hPa NNE 3.2 km/h 9.7 km/h 99% 0 mm 45 W/m2
08:20 5.9 °C 5.8 °C 1026.6 hPa NNE 1.6 km/h 8 km/h 99% 0 mm 48 W/m2
08:30 6 °C 5.7 °C 1026.6 hPa NNE 1.6 km/h 8 km/h 98% 0 mm 44 W/m2
08:40 6.1 °C 5.8 °C 1026.6 hPa WNW 1.6 km/h 9.7 km/h 98% 0 mm 45 W/m2
08:50 6.2 °C 5.9 °C 1026.6 hPa NE 8 km/h 12.9 km/h 98% 0 mm 43 W/m2
09:00 6.1 °C 5.5 °C 1026.6 hPa ESE 3.2 km/h 11.3 km/h 96% 0 mm 49 W/m2
09:10 6.1 °C 5.5 °C 1027 hPa East 3.2 km/h 9.7 km/h 96% 0 mm 45 W/m2
09:20 6.1 °C 5.5 °C 1027 hPa East 4.8 km/h 11.3 km/h 96% 0 mm 55 W/m2
09:30 6.1 °C 5.5 °C 1027 hPa ENE 3.2 km/h 14.5 km/h 96% 0 mm 57 W/m2
09:40 6.2 °C 5.6 °C 1027 hPa East 4.8 km/h 9.7 km/h 96% 0 mm 64 W/m2
09:50 6.2 °C 5.4 °C 1027 hPa ESE 3.2 km/h 8 km/h 95% 0 mm 62 W/m2
10:00 6.3 °C 5.6 °C 1027 hPa ENE 1.6 km/h 8 km/h 95% 0 mm 71 W/m2
10:10 6.4 °C 5.7 °C 1027 hPa Calm   8 km/h 95% 0 mm 84 W/m2
10:20 6.6 °C 5.8 °C 1027 hPa NNE 1.6 km/h 4.8 km/h 95% 0 mm 92 W/m2
10:30 6.7 °C 5.8 °C 1027 hPa Calm   4.8 km/h 94% 0 mm 112 W/m2
10:40 6.9 °C 6 °C 1026.6 hPa NNW 3.2 km/h 9.7 km/h 94% 0 mm 134 W/m2
10:50 7.3 °C 6.4 °C 1026.6 hPa North 8 km/h 12.9 km/h 94% 0 mm 163 W/m2
11:00 7.6 °C 6.6 °C 1026.6 hPa NW 4.8 km/h 9.7 km/h 93% 0 mm 155 W/m2
11:10 7.9 °C 6.5 °C 1026.3 hPa NNW 3.2 km/h 14.5 km/h 91% 0 mm 174 W/m2
11:20 8.2 °C 6.8 °C 1026.3 hPa North 8 km/h 19.3 km/h 91% 0 mm 390 W/m2
11:30 9 °C 7.3 °C 1026 hPa North 11.3 km/h 20.9 km/h 89% 0 mm 343 W/m2
11:40 9.6 °C 7.4 °C 1026 hPa North 11.3 km/h 20.9 km/h 86% 0 mm 405 W/m2
11:50 10 °C 7.6 °C 1026.3 hPa North 11.3 km/h 25.7 km/h 85% 0 mm 366 W/m2
12:00 10.2 °C 7.6 °C 1026 hPa North 14.5 km/h 22.5 km/h 84% 0 mm 354 W/m2
12:10 10.4 °C 7.6 °C 1026 hPa North 9.7 km/h 22.5 km/h 83% 0 mm 366 W/m2
12:20 10.5 °C 7.4 °C 1026.3 hPa North 16.1 km/h 25.7 km/h 81% 0 mm 327 W/m2
12:30 10.6 °C 7.3 °C 1026.3 hPa North 14.5 km/h 29 km/h 80% 0 mm 281 W/m2
12:40 10.4 °C 7.3 °C 1026.3 hPa North 11.3 km/h 24.1 km/h 81% 0 mm 363 W/m2
12:50 10.3 °C 7.2 °C 1026.3 hPa North 12.9 km/h 25.7 km/h 81% 0 mm 276 W/m2
13:00 10.1 °C 7 °C 1026.3 hPa North 11.3 km/h 24.1 km/h 81% 0 mm 225 W/m2
13:10 10 °C 6.9 °C 1026.3 hPa North 9.7 km/h 25.7 km/h 81% 0 mm 293 W/m2
13:20 10.1 °C 7 °C 1026.3 hPa North 11.3 km/h 25.7 km/h 81% 0 mm 228 W/m2
13:30 9.9 °C 6.8 °C 1026.3 hPa North 12.9 km/h 27.4 km/h 81% 0 mm 266 W/m2
13:40 9.9 °C 6.8 °C 1026.3 hPa North 9.7 km/h 27.4 km/h 81% 0 mm 247 W/m2
13:50 9.8 °C 6.7 °C 1026.3 hPa North 12.9 km/h 27.4 km/h 81% 0 mm 248 W/m2
14:00 9.9 °C 6.8 °C 1026.3 hPa North 14.5 km/h 24.1 km/h 81% 0 mm 227 W/m2
14:10 9.8 °C 6.7 °C 1026.3 hPa North 11.3 km/h 27.4 km/h 81% 0 mm 207 W/m2
14:20 9.8 °C 6.7 °C 1026.3 hPa North 12.9 km/h 27.4 km/h 81% 0 mm 184 W/m2
14:30 9.5 °C 6.4 °C 1026.3 hPa North 11.3 km/h 27.4 km/h 81% 0 mm 164 W/m2
14:40 9.4 °C 6.7 °C 1026.3 hPa North 11.3 km/h 25.7 km/h 83% 0 mm 142 W/m2
14:50 9.2 °C 6.4 °C 1026.3 hPa North 14.5 km/h 29 km/h 83% 0 mm 120 W/m2
15:00 8.9 °C 6.2 °C 1026.3 hPa North 9.7 km/h 29 km/h 83% 0 mm 94 W/m2
15:10 8.7 °C 6.2 °C 1026.3 hPa North 11.3 km/h 24.1 km/h 84% 0 mm 77 W/m2
15:20 8.6 °C 6.1 °C 1026.3 hPa North 14.5 km/h 22.5 km/h 84% 0 mm 57 W/m2
15:30 8.4 °C 5.8 °C 1026.3 hPa North 11.3 km/h 24.1 km/h 84% 0 mm 38 W/m2
15:40 8.2 °C 5.8 °C 1026.6 hPa North 9.7 km/h 20.9 km/h 85% 0 mm 20 W/m2
15:50 8 °C 5.7 °C 1026.6 hPa North 12.9 km/h 24.1 km/h 85% 0 mm 5 W/m2
16:00 7.8 °C 5.6 °C 1026.6 hPa North 12.9 km/h 27.4 km/h 86% 0 mm 7 W/m2
16:10 7.6 °C 5.4 °C 1026.6 hPa North 11.3 km/h 24.1 km/h 86% 0 mm 0 W/m2
16:20 7.5 °C 5.3 °C 1026.6 hPa North 12.9 km/h 27.4 km/h 86% 0 mm 0 W/m2
16:30 7.5 °C 5.3 °C 1027 hPa North 11.3 km/h 22.5 km/h 86% 0 mm 0 W/m2
16:40 7.3 °C 5.1 °C 1026.6 hPa North 12.9 km/h 24.1 km/h 86% 0 mm 0 W/m2
16:50 7.3 °C 5.4 °C 1027 hPa North 11.3 km/h 20.9 km/h 88% 0 mm 0 W/m2
17:00 7.2 °C 5.3 °C 1027 hPa North 9.7 km/h 25.7 km/h 88% 0 mm 0 W/m2
17:10 7.2 °C 5.3 °C 1027 hPa North 9.7 km/h 22.5 km/h 88% 0 mm 0 W/m2
17:20 7.1 °C 5.2 °C 1027.3 hPa North 16.1 km/h 24.1 km/h 88% 0 mm 0 W/m2
17:30 7.1 °C 5.2 °C 1027.3 hPa North 11.3 km/h 24.1 km/h 88% 0 mm 0 W/m2
17:40 7 °C 5.2 °C 1027.3 hPa North 8 km/h 20.9 km/h 88% 0 mm 0 W/m2
17:50 7 °C 5.2 °C 1027.3 hPa North 11.3 km/h 20.9 km/h 88% 0 mm 0 W/m2
18:00 6.9 °C 5.1 °C 1027.3 hPa North 8 km/h 27.4 km/h 88% 0 mm 0 W/m2
18:10 6.8 °C 5.1 °C 1027.3 hPa North 11.3 km/h 24.1 km/h 89% 0 mm 0 W/m2
18:20 6.7 °C 5 °C 1027.3 hPa North 11.3 km/h 25.7 km/h 89% 0 mm 0 W/m2
18:30 6.7 °C 5 °C 1027.7 hPa North 11.3 km/h 22.5 km/h 89% 0 mm 0 W/m2
18:40 6.7 °C 5.2 °C 1027.7 hPa North 9.7 km/h 25.7 km/h 90% 0 mm 0 W/m2
18:50 6.6 °C 5.1 °C 1027.7 hPa North 9.7 km/h 19.3 km/h 90% 0 mm 0 W/m2
19:00 6.6 °C 5.2 °C 1027.7 hPa North 11.3 km/h 19.3 km/h 91% 0 mm 0 W/m2
19:10 6.6 °C 5.2 °C 1027.7 hPa North 4.8 km/h 22.5 km/h 91% 0 mm 0 W/m2
19:20 6.6 °C 5.2 °C 1027.7 hPa North 8 km/h 17.7 km/h 91% 0 mm 0 W/m2
19:30 6.6 °C 5.2 °C 1027.7 hPa North 8 km/h 19.3 km/h 91% 0 mm 0 W/m2
19:40 6.6 °C 5.2 °C 1027.7 hPa North 9.7 km/h 20.9 km/h 91% 0 mm 0 W/m2
19:50 6.7 °C 5.3 °C 1028 hPa North 8 km/h 22.5 km/h 91% 0 mm 0 W/m2
20:00 6.6 °C 5.2 °C 1028 hPa North 8 km/h 20.9 km/h 91% 0 mm 0 W/m2
20:10 6.6 °C 5.2 °C 1028.3 hPa North 4.8 km/h 16.1 km/h 91% 0 mm 0 W/m2
20:20 6.6 °C 5.2 °C 1028.3 hPa North 8 km/h 19.3 km/h 91% 0 mm 0 W/m2
20:30 6.6 °C 5.2 °C 1028.3 hPa North 3.2 km/h 19.3 km/h 91% 0 mm 0 W/m2
20:40 6.6 °C 5.2 °C 1028.3 hPa NNW 8 km/h 17.7 km/h 91% 0 mm 0 W/m2
20:50 6.2 °C 4.8 °C 1028.3 hPa SSE 3.2 km/h 16.1 km/h 91% 0 mm 0 W/m2
21:00 6.1 °C 4.7 °C 1028.3 hPa NNW 1.6 km/h 12.9 km/h 91% 0 mm 0 W/m2
21:10 5.6 °C 4.2 °C 1028.7 hPa SSE 1.6 km/h 9.7 km/h 91% 0 mm 0 W/m2
21:20 5.4 °C 4.1 °C 1028.3 hPa East 1.6 km/h 6.4 km/h 91% 0 mm 0 W/m2
21:30 5.1 °C 3.8 °C 1028.3 hPa East 3.2 km/h 6.4 km/h 91% 0 mm 0 W/m2
21:40 4.7 °C 3.3 °C 1028.7 hPa ESE 4.8 km/h 8 km/h 91% 0 mm 0 W/m2
21:50 4.3 °C 3.3 °C 1028.7 hPa ENE 4.8 km/h 9.7 km/h 93% 0 mm 0 W/m2
22:00 4 °C 2.9 °C 1028.7 hPa ESE 4.8 km/h 9.7 km/h 93% 0 mm 0 W/m2
22:10 3.7 °C 2.8 °C 1028.7 hPa SSE 3.2 km/h 11.3 km/h 94% 0 mm 0 W/m2
22:20 3.5 °C 2.6 °C 1028.7 hPa East 4.8 km/h 11.3 km/h 94% 0 mm 0 W/m2
22:30 3.4 °C 2.7 °C 1028.7 hPa SSE 3.2 km/h 9.7 km/h 95% 0 mm 0 W/m2
22:40 3.2 °C 2.5 °C 1028.7 hPa Calm   9.7 km/h 95% 0 mm 0 W/m2
22:50 3 °C 2.4 °C 1029 hPa SE 1.6 km/h 8 km/h 96% 0 mm 0 W/m2
23:00 2.9 °C 2.3 °C 1029 hPa East 4.8 km/h 9.7 km/h 96% 0 mm 0 W/m2
23:10 2.8 °C 2.2 °C 1029 hPa ENE 3.2 km/h 8 km/h 96% 0 mm 0 W/m2
23:20 2.7 °C 2.1 °C 1029 hPa ESE 1.6 km/h 8 km/h 96% 0 mm 0 W/m2
23:30 2.6 °C 2 °C 1029 hPa ESE 1.6 km/h 6.4 km/h 96% 0 mm 0 W/m2
Knjazevac, Serbia
Compliments of Weather Underground - 2 mb